Terminal Aerodrome Forecast
Issued by NWS

Home | Current Version | Previous Version | Text Only | Print | Product List | Glossary On
Versions: 1 2 3 4 5 6 7 8 9 10 11 12 13 14 15
000
FTUS46 KPDT 052015 AAA
TAFALW
TAF AMD
KALW 052015Z 0520/0618 22010KT P6SM SKC
     FM060000 31011G18KT P6SM FEW140
     FM060300 11007KT P6SM SKC
     FM061500 22005KT P6SM SKC=

USA.gov is the U.S. government's official web portal to all federal, state and local government web resources and services.